sensor_id;sensor_type;location;lat;lon;timestamp;P1;durP1;ratioP1;P2;durP2;ratioP2
18732;SDS011;9495;51.210;2.934;2022-12-17T00:00:48;51.50;;;33.93;;
18732;SDS011;9495;51.210;2.934;2022-12-17T00:03:34;48.53;;;34.40;;
18732;SDS011;9495;51.210;2.934;2022-12-17T00:06:22;48.60;;;34.47;;
18732;SDS011;9495;51.210;2.934;2022-12-17T00:09:09;50.83;;;34.90;;
18732;SDS011;9495;51.210;2.934;2022-12-17T00:11:55;52.00;;;34.83;;
18732;SDS011;9495;51.210;2.934;2022-12-17T00:14:55;45.90;;;34.37;;
18732;SDS011;9495;51.210;2.934;2022-12-17T00:17:41;50.53;;;34.87;;
18732;SDS011;9495;51.210;2.934;2022-12-17T00:20:27;50.90;;;33.90;;
18732;SDS011;9495;51.210;2.934;2022-12-17T00:23:13;48.77;;;33.57;;
18732;SDS011;9495;51.210;2.934;2022-12-17T00:26:00;47.27;;;33.87;;
18732;SDS011;9495;51.210;2.934;2022-12-17T00:28:47;53.43;;;34.00;;
18732;SDS011;9495;51.210;2.934;2022-12-17T00:31:33;58.77;;;33.70;;
18732;SDS011;9495;51.210;2.934;2022-12-17T00:34:21;52.80;;;32.37;;
18732;SDS011;9495;51.210;2.934;2022-12-17T00:37:08;43.73;;;30.63;;
18732;SDS011;9495;51.210;2.934;2022-12-17T00:39:55;48.20;;;30.03;;
18732;SDS011;9495;51.210;2.934;2022-12-17T00:42:42;40.83;;;29.27;;
18732;SDS011;9495;51.210;2.934;2022-12-17T00:45:30;39.60;;;26.93;;
18732;SDS011;9495;51.210;2.934;2022-12-17T00:48:16;37.30;;;24.23;;
18732;SDS011;9495;51.210;2.934;2022-12-17T00:51:02;43.47;;;26.20;;
18732;SDS011;9495;51.210;2.934;2022-12-17T00:53:48;32.47;;;23.20;;
18732;SDS011;9495;51.210;2.934;2022-12-17T00:56:34;38.80;;;23.20;;
18732;SDS011;9495;51.210;2.934;2022-12-17T00:59:22;34.67;;;22.83;;
18732;SDS011;9495;51.210;2.934;2022-12-17T01:02:08;34.60;;;22.33;;
18732;SDS011;9495;51.210;2.934;2022-12-17T01:04:54;38.27;;;23.50;;
18732;SDS011;9495;51.210;2.934;2022-12-17T01:07:40;37.63;;;24.37;;
18732;SDS011;9495;51.210;2.934;2022-12-17T01:10:26;33.43;;;24.53;;
18732;SDS011;9495;51.210;2.934;2022-12-17T01:13:12;36.60;;;24.40;;
18732;SDS011;9495;51.210;2.934;2022-12-17T01:16:02;31.23;;;21.93;;
18732;SDS011;9495;51.210;2.934;2022-12-17T01:18:48;34.80;;;22.40;;
18732;SDS011;9495;51.210;2.934;2022-12-17T01:21:35;34.63;;;22.73;;
18732;SDS011;9495;51.210;2.934;2022-12-17T01:24:21;32.83;;;21.53;;
18732;SDS011;9495;51.210;2.934;2022-12-17T01:27:07;34.40;;;21.20;;
18732;SDS011;9495;51.210;2.934;2022-12-17T01:29:53;35.63;;;21.20;;
18732;SDS011;9495;51.210;2.934;2022-12-17T01:32:41;31.97;;;20.57;;
18732;SDS011;9495;51.210;2.934;2022-12-17T01:35:27;29.00;;;19.70;;
18732;SDS011;9495;51.210;2.934;2022-12-17T01:38:13;30.33;;;19.63;;
18732;SDS011;9495;51.210;2.934;2022-12-17T01:41:00;32.17;;;21.27;;
18732;SDS011;9495;51.210;2.934;2022-12-17T01:43:46;32.20;;;20.53;;
18732;SDS011;9495;51.210;2.934;2022-12-17T01:46:32;28.37;;;19.90;;
18732;SDS011;9495;51.210;2.934;2022-12-17T01:49:22;30.37;;;19.97;;
18732;SDS011;9495;51.210;2.934;2022-12-17T01:52:10;29.87;;;19.63;;
18732;SDS011;9495;51.210;2.934;2022-12-17T01:54:59;29.00;;;21.10;;
18732;SDS011;9495;51.210;2.934;2022-12-17T01:57:46;31.33;;;20.53;;
18732;SDS011;9495;51.210;2.934;2022-12-17T02:00:32;34.47;;;21.53;;
18732;SDS011;9495;51.210;2.934;2022-12-17T02:03:18;30.30;;;20.73;;
18732;SDS011;9495;51.210;2.934;2022-12-17T02:06:08;27.67;;;20.57;;
18732;SDS011;9495;51.210;2.934;2022-12-17T02:09:02;31.73;;;20.37;;
18732;SDS011;9495;51.210;2.934;2022-12-17T02:11:55;32.57;;;21.00;;
18732;SDS011;9495;51.210;2.934;2022-12-17T02:14:47;28.17;;;20.80;;
18732;SDS011;9495;51.210;2.934;2022-12-17T02:17:57;31.80;;;21.20;;
18732;SDS011;9495;51.210;2.934;2022-12-17T02:20:48;30.67;;;21.90;;
18732;SDS011;9495;51.210;2.934;2022-12-17T02:23:41;29.20;;;19.83;;
18732;SDS011;9495;51.210;2.934;2022-12-17T02:26:35;32.27;;;19.73;;
18732;SDS011;9495;51.210;2.934;2022-12-17T02:29:22;36.00;;;18.73;;
18732;SDS011;9495;51.210;2.934;2022-12-17T02:32:11;29.50;;;18.53;;
18732;SDS011;9495;51.210;2.934;2022-12-17T02:34:59;25.13;;;17.33;;
18732;SDS011;9495;51.210;2.934;2022-12-17T02:37:47;28.40;;;16.97;;
18732;SDS011;9495;51.210;2.934;2022-12-17T02:40:33;27.60;;;17.83;;
18732;SDS011;9495;51.210;2.934;2022-12-17T02:43:23;24.20;;;16.87;;
18732;SDS011;9495;51.210;2.934;2022-12-17T02:46:10;27.77;;;17.87;;
18732;SDS011;9495;51.210;2.934;2022-12-17T02:48:57;27.60;;;19.50;;
18732;SDS011;9495;51.210;2.934;2022-12-17T02:51:43;27.37;;;18.87;;
18732;SDS011;9495;51.210;2.934;2022-12-17T02:54:29;26.00;;;18.87;;
18732;SDS011;9495;51.210;2.934;2022-12-17T02:57:16;32.67;;;20.17;;
18732;SDS011;9495;51.210;2.934;2022-12-17T03:00:10;32.90;;;20.33;;
18732;SDS011;9495;51.210;2.934;2022-12-17T03:02:57;29.23;;;18.80;;
18732;SDS011;9495;51.210;2.934;2022-12-17T03:05:43;29.07;;;19.00;;
18732;SDS011;9495;51.210;2.934;2022-12-17T03:08:29;29.47;;;17.73;;
18732;SDS011;9495;51.210;2.934;2022-12-17T03:11:15;27.10;;;18.17;;
18732;SDS011;9495;51.210;2.934;2022-12-17T03:14:01;28.87;;;19.00;;
18732;SDS011;9495;51.210;2.934;2022-12-17T03:16:49;26.07;;;17.00;;
18732;SDS011;9495;51.210;2.934;2022-12-17T03:19:35;26.43;;;18.00;;
18732;SDS011;9495;51.210;2.934;2022-12-17T03:22:20;28.87;;;17.73;;
18732;SDS011;9495;51.210;2.934;2022-12-17T03:25:06;25.83;;;17.80;;
18732;SDS011;9495;51.210;2.934;2022-12-17T03:27:52;27.73;;;18.47;;
18732;SDS011;9495;51.210;2.934;2022-12-17T03:30:38;28.97;;;19.93;;
18732;SDS011;9495;51.210;2.934;2022-12-17T03:33:25;31.97;;;20.53;;
18732;SDS011;9495;51.210;2.934;2022-12-17T03:36:11;39.67;;;20.93;;
18732;SDS011;9495;51.210;2.934;2022-12-17T03:38:57;34.17;;;22.00;;
18732;SDS011;9495;51.210;2.934;2022-12-17T03:41:44;32.43;;;22.40;;
18732;SDS011;9495;51.210;2.934;2022-12-17T03:44:30;30.13;;;21.70;;
18732;SDS011;9495;51.210;2.934;2022-12-17T03:47:16;35.20;;;22.03;;
18732;SDS011;9495;51.210;2.934;2022-12-17T03:50:03;30.47;;;22.13;;
18732;SDS011;9495;51.210;2.934;2022-12-17T03:52:50;33.17;;;21.80;;
18732;SDS011;9495;51.210;2.934;2022-12-17T03:55:36;30.17;;;20.57;;
18732;SDS011;9495;51.210;2.934;2022-12-17T03:58:22;33.93;;;21.60;;
18732;SDS011;9495;51.210;2.934;2022-12-17T04:01:07;32.10;;;20.93;;
18732;SDS011;9495;51.210;2.934;2022-12-17T04:03:53;34.17;;;21.20;;
18732;SDS011;9495;51.210;2.934;2022-12-17T04:06:41;33.63;;;22.20;;
18732;SDS011;9495;51.210;2.934;2022-12-17T04:09:27;33.33;;;21.43;;
18732;SDS011;9495;51.210;2.934;2022-12-17T04:12:15;30.37;;;21.53;;
18732;SDS011;9495;51.210;2.934;2022-12-17T04:15:01;30.57;;;21.87;;
18732;SDS011;9495;51.210;2.934;2022-12-17T04:17:49;32.83;;;21.70;;
18732;SDS011;9495;51.210;2.934;2022-12-17T04:20:34;30.07;;;22.77;;
18732;SDS011;9495;51.210;2.934;2022-12-17T04:23:21;30.40;;;21.73;;
18732;SDS011;9495;51.210;2.934;2022-12-17T04:26:07;31.00;;;22.80;;
18732;SDS011;9495;51.210;2.934;2022-12-17T04:28:53;32.63;;;22.80;;
18732;SDS011;9495;51.210;2.934;2022-12-17T04:31:39;33.73;;;23.03;;
18732;SDS011;9495;51.210;2.934;2022-12-17T04:34:25;30.83;;;21.40;;
18732;SDS011;9495;51.210;2.934;2022-12-17T04:37:15;31.63;;;22.33;;
18732;SDS011;9495;51.210;2.934;2022-12-17T04:40:02;30.40;;;21.90;;
18732;SDS011;9495;51.210;2.934;2022-12-17T04:42:48;32.20;;;22.67;;
18732;SDS011;9495;51.210;2.934;2022-12-17T04:45:36;32.83;;;22.87;;
18732;SDS011;9495;51.210;2.934;2022-12-17T04:48:22;33.33;;;22.77;;
18732;SDS011;9495;51.210;2.934;2022-12-17T04:51:08;32.27;;;22.10;;
18732;SDS011;9495;51.210;2.934;2022-12-17T04:53:54;32.90;;;23.83;;
18732;SDS011;9495;51.210;2.934;2022-12-17T04:56:47;36.30;;;24.30;;
18732;SDS011;9495;51.210;2.934;2022-12-17T04:59:32;37.97;;;24.23;;
18732;SDS011;9495;51.210;2.934;2022-12-17T05:02:18;36.83;;;24.60;;
18732;SDS011;9495;51.210;2.934;2022-12-17T05:05:08;34.47;;;24.10;;
18732;SDS011;9495;51.210;2.934;2022-12-17T05:07:54;37.40;;;24.13;;
18732;SDS011;9495;51.210;2.934;2022-12-17T05:10:40;36.47;;;24.43;;
18732;SDS011;9495;51.210;2.934;2022-12-17T05:13:27;40.93;;;25.20;;
18732;SDS011;9495;51.210;2.934;2022-12-17T05:16:13;37.63;;;25.60;;
18732;SDS011;9495;51.210;2.934;2022-12-17T05:18:59;35.70;;;24.70;;
18732;SDS011;9495;51.210;2.934;2022-12-17T05:21:45;37.40;;;26.83;;
18732;SDS011;9495;51.210;2.934;2022-12-17T05:24:31;38.67;;;24.33;;
18732;SDS011;9495;51.210;2.934;2022-12-17T05:27:17;36.70;;;25.10;;
18732;SDS011;9495;51.210;2.934;2022-12-17T05:30:05;38.07;;;24.60;;
18732;SDS011;9495;51.210;2.934;2022-12-17T05:32:56;34.23;;;24.07;;
18732;SDS011;9495;51.210;2.934;2022-12-17T05:35:43;35.77;;;25.07;;
18732;SDS011;9495;51.210;2.934;2022-12-17T05:38:29;33.63;;;25.53;;
18732;SDS011;9495;51.210;2.934;2022-12-17T05:41:14;33.90;;;24.40;;
18732;SDS011;9495;51.210;2.934;2022-12-17T05:44:00;36.30;;;24.70;;
18732;SDS011;9495;51.210;2.934;2022-12-17T05:46:47;38.57;;;25.00;;
18732;SDS011;9495;51.210;2.934;2022-12-17T05:49:33;35.27;;;24.13;;
18732;SDS011;9495;51.210;2.934;2022-12-17T05:52:22;31.67;;;23.67;;
18732;SDS011;9495;51.210;2.934;2022-12-17T05:55:07;41.43;;;25.43;;
18732;SDS011;9495;51.210;2.934;2022-12-17T05:58:00;37.67;;;26.13;;
18732;SDS011;9495;51.210;2.934;2022-12-17T06:00:46;35.50;;;26.07;;
18732;SDS011;9495;51.210;2.934;2022-12-17T06:03:33;43.00;;;26.70;;
18732;SDS011;9495;51.210;2.934;2022-12-17T06:06:19;35.47;;;26.17;;
18732;SDS011;9495;51.210;2.934;2022-12-17T06:09:04;38.93;;;26.73;;
18732;SDS011;9495;51.210;2.934;2022-12-17T06:11:51;41.83;;;28.63;;
18732;SDS011;9495;51.210;2.934;2022-12-17T06:14:36;37.53;;;26.00;;
18732;SDS011;9495;51.210;2.934;2022-12-17T06:17:22;35.00;;;26.03;;
18732;SDS011;9495;51.210;2.934;2022-12-17T06:20:12;38.17;;;26.50;;
18732;SDS011;9495;51.210;2.934;2022-12-17T06:22:58;43.70;;;27.23;;
18732;SDS011;9495;51.210;2.934;2022-12-17T06:25:44;45.37;;;28.37;;
18732;SDS011;9495;51.210;2.934;2022-12-17T06:28:30;41.37;;;27.73;;
18732;SDS011;9495;51.210;2.934;2022-12-17T06:31:16;42.47;;;29.37;;
18732;SDS011;9495;51.210;2.934;2022-12-17T06:34:03;47.67;;;30.40;;
18732;SDS011;9495;51.210;2.934;2022-12-17T06:36:50;42.10;;;29.53;;
18732;SDS011;9495;51.210;2.934;2022-12-17T06:39:35;40.73;;;30.33;;
18732;SDS011;9495;51.210;2.934;2022-12-17T06:42:21;45.60;;;32.50;;
18732;SDS011;9495;51.210;2.934;2022-12-17T06:45:07;49.43;;;32.67;;
18732;SDS011;9495;51.210;2.934;2022-12-17T06:47:59;48.90;;;33.40;;
18732;SDS011;9495;51.210;2.934;2022-12-17T06:50:45;49.00;;;33.30;;
18732;SDS011;9495;51.210;2.934;2022-12-17T06:53:32;51.07;;;35.60;;
18732;SDS011;9495;51.210;2.934;2022-12-17T06:56:18;55.80;;;36.77;;
18732;SDS011;9495;51.210;2.934;2022-12-17T06:59:04;58.03;;;39.80;;
18732;SDS011;9495;51.210;2.934;2022-12-17T07:01:50;65.10;;;42.07;;
18732;SDS011;9495;51.210;2.934;2022-12-17T07:04:36;62.97;;;42.40;;
18732;SDS011;9495;51.210;2.934;2022-12-17T07:07:36;67.17;;;45.37;;
18732;SDS011;9495;51.210;2.934;2022-12-17T07:10:24;67.20;;;45.50;;
18732;SDS011;9495;51.210;2.934;2022-12-17T07:13:09;64.27;;;46.40;;
18732;SDS011;9495;51.210;2.934;2022-12-17T07:15:55;72.93;;;50.43;;
18732;SDS011;9495;51.210;2.934;2022-12-17T07:18:41;75.60;;;49.07;;
18732;SDS011;9495;51.210;2.934;2022-12-17T07:21:27;67.37;;;48.43;;
18732;SDS011;9495;51.210;2.934;2022-12-17T07:24:13;78.63;;;53.20;;
18732;SDS011;9495;51.210;2.934;2022-12-17T07:27:00;75.47;;;50.43;;
18732;SDS011;9495;51.210;2.934;2022-12-17T07:29:46;70.10;;;49.43;;
18732;SDS011;9495;51.210;2.934;2022-12-17T07:32:32;76.10;;;51.40;;
18732;SDS011;9495;51.210;2.934;2022-12-17T07:35:19;77.10;;;52.30;;
18732;SDS011;9495;51.210;2.934;2022-12-17T07:38:05;78.00;;;51.37;;
18732;SDS011;9495;51.210;2.934;2022-12-17T07:40:51;77.87;;;53.00;;
18732;SDS011;9495;51.210;2.934;2022-12-17T07:43:38;76.37;;;54.43;;
18732;SDS011;9495;51.210;2.934;2022-12-17T07:46:24;80.17;;;53.10;;
18732;SDS011;9495;51.210;2.934;2022-12-17T07:49:19;80.50;;;54.67;;
18732;SDS011;9495;51.210;2.934;2022-12-17T07:52:05;81.27;;;56.63;;
18732;SDS011;9495;51.210;2.934;2022-12-17T07:54:50;82.80;;;55.83;;
18732;SDS011;9495;51.210;2.934;2022-12-17T07:57:43;77.10;;;54.37;;
18732;SDS011;9495;51.210;2.934;2022-12-17T08:00:30;84.53;;;57.70;;
18732;SDS011;9495;51.210;2.934;2022-12-17T08:03:16;77.30;;;53.30;;
18732;SDS011;9495;51.210;2.934;2022-12-17T08:06:02;78.83;;;53.53;;
18732;SDS011;9495;51.210;2.934;2022-12-17T08:09:00;80.03;;;54.37;;
18732;SDS011;9495;51.210;2.934;2022-12-17T08:11:46;83.37;;;54.07;;
18732;SDS011;9495;51.210;2.934;2022-12-17T08:14:32;76.63;;;51.87;;
18732;SDS011;9495;51.210;2.934;2022-12-17T08:17:19;77.73;;;52.67;;
18732;SDS011;9495;51.210;2.934;2022-12-17T08:20:05;75.97;;;52.73;;
18732;SDS011;9495;51.210;2.934;2022-12-17T08:22:51;74.70;;;51.67;;
18732;SDS011;9495;51.210;2.934;2022-12-17T08:25:43;67.13;;;48.60;;
18732;SDS011;9495;51.210;2.934;2022-12-17T08:28:29;73.07;;;48.17;;
18732;SDS011;9495;51.210;2.934;2022-12-17T08:31:17;73.60;;;49.63;;
18732;SDS011;9495;51.210;2.934;2022-12-17T08:34:04;67.60;;;49.27;;
18732;SDS011;9495;51.210;2.934;2022-12-17T08:36:50;67.73;;;48.80;;
18732;SDS011;9495;51.210;2.934;2022-12-17T08:39:36;68.50;;;48.17;;
18732;SDS011;9495;51.210;2.934;2022-12-17T08:42:22;68.60;;;47.80;;
18732;SDS011;9495;51.210;2.934;2022-12-17T08:45:08;70.27;;;47.80;;
18732;SDS011;9495;51.210;2.934;2022-12-17T08:48:00;69.83;;;48.43;;
18732;SDS011;9495;51.210;2.934;2022-12-17T08:50:53;65.17;;;47.13;;
18732;SDS011;9495;51.210;2.934;2022-12-17T08:53:39;69.80;;;46.27;;
18732;SDS011;9495;51.210;2.934;2022-12-17T08:56:25;64.70;;;46.73;;
18732;SDS011;9495;51.210;2.934;2022-12-17T08:59:10;70.83;;;46.27;;
18732;SDS011;9495;51.210;2.934;2022-12-17T09:01:56;65.50;;;45.43;;
18732;SDS011;9495;51.210;2.934;2022-12-17T09:04:42;63.73;;;45.73;;
18732;SDS011;9495;51.210;2.934;2022-12-17T09:07:30;59.93;;;44.67;;
18732;SDS011;9495;51.210;2.934;2022-12-17T09:10:15;63.53;;;44.90;;
18732;SDS011;9495;51.210;2.934;2022-12-17T09:13:02;63.50;;;43.27;;
18732;SDS011;9495;51.210;2.934;2022-12-17T09:15:51;63.27;;;43.47;;
18732;SDS011;9495;51.210;2.934;2022-12-17T09:18:37;63.07;;;43.37;;
18732;SDS011;9495;51.210;2.934;2022-12-17T09:21:25;60.53;;;42.27;;
18732;SDS011;9495;51.210;2.934;2022-12-17T09:24:13;55.23;;;40.20;;
18732;SDS011;9495;51.210;2.934;2022-12-17T09:26:59;57.47;;;40.07;;
18732;SDS011;9495;51.210;2.934;2022-12-17T09:29:45;54.67;;;39.80;;
18732;SDS011;9495;51.210;2.934;2022-12-17T09:32:31;59.43;;;40.07;;
18732;SDS011;9495;51.210;2.934;2022-12-17T09:35:17;53.23;;;38.03;;
18732;SDS011;9495;51.210;2.934;2022-12-17T09:38:03;59.47;;;40.93;;
18732;SDS011;9495;51.210;2.934;2022-12-17T09:40:50;56.67;;;38.27;;
18732;SDS011;9495;51.210;2.934;2022-12-17T09:43:39;52.97;;;37.83;;
18732;SDS011;9495;51.210;2.934;2022-12-17T09:46:31;54.27;;;38.10;;
18732;SDS011;9495;51.210;2.934;2022-12-17T09:49:23;51.97;;;37.13;;
18732;SDS011;9495;51.210;2.934;2022-12-17T09:52:16;52.17;;;36.23;;
18732;SDS011;9495;51.210;2.934;2022-12-17T09:55:16;49.13;;;34.63;;
18732;SDS011;9495;51.210;2.934;2022-12-17T09:58:21;52.87;;;33.23;;
18732;SDS011;9495;51.210;2.934;2022-12-17T10:01:11;51.53;;;33.33;;
18732;SDS011;9495;51.210;2.934;2022-12-17T10:04:00;46.80;;;31.33;;
18732;SDS011;9495;51.210;2.934;2022-12-17T10:06:47;40.93;;;31.30;;
18732;SDS011;9495;51.210;2.934;2022-12-17T10:09:33;45.83;;;31.73;;
18732;SDS011;9495;51.210;2.934;2022-12-17T10:12:22;45.57;;;31.53;;
18732;SDS011;9495;51.210;2.934;2022-12-17T10:15:12;44.47;;;29.93;;
18732;SDS011;9495;51.210;2.934;2022-12-17T10:18:01;41.60;;;29.33;;
18732;SDS011;9495;51.210;2.934;2022-12-17T10:20:51;42.30;;;30.03;;
18732;SDS011;9495;51.210;2.934;2022-12-17T10:23:41;41.27;;;29.20;;
18732;SDS011;9495;51.210;2.934;2022-12-17T10:26:28;44.97;;;29.07;;
18732;SDS011;9495;51.210;2.934;2022-12-17T10:29:16;42.27;;;27.87;;
18732;SDS011;9495;51.210;2.934;2022-12-17T10:32:18;37.53;;;27.07;;
18732;SDS011;9495;51.210;2.934;2022-12-17T10:35:06;50.37;;;29.30;;
18732;SDS011;9495;51.210;2.934;2022-12-17T10:37:55;35.13;;;27.13;;
18732;SDS011;9495;51.210;2.934;2022-12-17T10:40:44;38.47;;;26.70;;
18732;SDS011;9495;51.210;2.934;2022-12-17T10:43:30;42.43;;;27.83;;
18732;SDS011;9495;51.210;2.934;2022-12-17T10:46:21;41.97;;;28.17;;
18732;SDS011;9495;51.210;2.934;2022-12-17T10:49:13;41.93;;;31.17;;
18732;SDS011;9495;51.210;2.934;2022-12-17T10:52:03;39.07;;;26.73;;
18732;SDS011;9495;51.210;2.934;2022-12-17T10:54:55;37.87;;;26.93;;
18732;SDS011;9495;51.210;2.934;2022-12-17T10:57:43;40.23;;;26.60;;
18732;SDS011;9495;51.210;2.934;2022-12-17T11:00:31;40.03;;;27.03;;
18732;SDS011;9495;51.210;2.934;2022-12-17T11:03:29;37.10;;;26.90;;
18732;SDS011;9495;51.210;2.934;2022-12-17T11:06:24;37.33;;;27.83;;
18732;SDS011;9495;51.210;2.934;2022-12-17T11:09:15;38.30;;;28.33;;
18732;SDS011;9495;51.210;2.934;2022-12-17T11:12:08;38.43;;;28.50;;
18732;SDS011;9495;51.210;2.934;2022-12-17T11:14:58;36.00;;;26.97;;
18732;SDS011;9495;51.210;2.934;2022-12-17T11:17:48;42.97;;;28.80;;
18732;SDS011;9495;51.210;2.934;2022-12-17T11:20:40;39.23;;;28.93;;
18732;SDS011;9495;51.210;2.934;2022-12-17T11:23:32;42.23;;;31.63;;
18732;SDS011;9495;51.210;2.934;2022-12-17T11:26:27;40.23;;;31.20;;
18732;SDS011;9495;51.210;2.934;2022-12-17T11:29:17;42.33;;;32.67;;
18732;SDS011;9495;51.210;2.934;2022-12-17T11:35:27;79.43;;;49.90;;
18732;SDS011;9495;51.210;2.934;2022-12-17T11:38:20;47.87;;;31.07;;
18732;SDS011;9495;51.210;2.934;2022-12-17T11:41:17;43.47;;;32.17;;
18732;SDS011;9495;51.210;2.934;2022-12-17T11:44:10;47.30;;;32.43;;
18732;SDS011;9495;51.210;2.934;2022-12-17T11:47:08;42.07;;;30.47;;
18732;SDS011;9495;51.210;2.934;2022-12-17T11:50:03;42.33;;;31.53;;
18732;SDS011;9495;51.210;2.934;2022-12-17T11:52:57;42.70;;;32.07;;
18732;SDS011;9495;51.210;2.934;2022-12-17T11:55:54;48.13;;;31.03;;
18732;SDS011;9495;51.210;2.934;2022-12-17T11:58:48;43.70;;;32.57;;
18732;SDS011;9495;51.210;2.934;2022-12-17T12:01:38;41.97;;;32.73;;
18732;SDS011;9495;51.210;2.934;2022-12-17T12:04:34;41.40;;;31.70;;
18732;SDS011;9495;51.210;2.934;2022-12-17T12:07:36;46.33;;;33.27;;
18732;SDS011;9495;51.210;2.934;2022-12-17T12:10:27;46.67;;;34.10;;
18732;SDS011;9495;51.210;2.934;2022-12-17T12:13:22;47.23;;;34.43;;
18732;SDS011;9495;51.210;2.934;2022-12-17T12:16:14;48.97;;;34.77;;
18732;SDS011;9495;51.210;2.934;2022-12-17T12:19:11;49.77;;;34.10;;
18732;SDS011;9495;51.210;2.934;2022-12-17T12:22:04;48.20;;;34.40;;
18732;SDS011;9495;51.210;2.934;2022-12-17T12:25:00;50.47;;;34.30;;
18732;SDS011;9495;51.210;2.934;2022-12-17T12:28:06;48.57;;;34.67;;
18732;SDS011;9495;51.210;2.934;2022-12-17T12:31:02;50.30;;;34.70;;
18732;SDS011;9495;51.210;2.934;2022-12-17T12:33:59;48.57;;;36.40;;
18732;SDS011;9495;51.210;2.934;2022-12-17T12:36:46;45.10;;;28.87;;
18732;SDS011;9495;51.210;2.934;2022-12-17T12:39:35;46.17;;;34.87;;
18732;SDS011;9495;51.210;2.934;2022-12-17T12:42:25;50.53;;;33.37;;
18732;SDS011;9495;51.210;2.934;2022-12-17T12:45:27;50.90;;;35.70;;
18732;SDS011;9495;51.210;2.934;2022-12-17T12:48:23;49.03;;;35.23;;
18732;SDS011;9495;51.210;2.934;2022-12-17T12:51:19;50.97;;;34.07;;
18732;SDS011;9495;51.210;2.934;2022-12-17T12:54:25;44.87;;;32.43;;
18732;SDS011;9495;51.210;2.934;2022-12-17T12:57:28;51.20;;;34.37;;
18732;SDS011;9495;51.210;2.934;2022-12-17T13:03:25;46.97;;;33.27;;
18732;SDS011;9495;51.210;2.934;2022-12-17T13:06:35;47.40;;;31.80;;
18732;SDS011;9495;51.210;2.934;2022-12-17T13:09:21;46.43;;;33.37;;
18732;SDS011;9495;51.210;2.934;2022-12-17T13:12:16;48.10;;;34.27;;
18732;SDS011;9495;51.210;2.934;2022-12-17T13:15:01;46.60;;;33.30;;
18732;SDS011;9495;51.210;2.934;2022-12-17T13:17:43;45.93;;;34.57;;
18732;SDS011;9495;51.210;2.934;2022-12-17T13:20:23;53.70;;;36.93;;
18732;SDS011;9495;51.210;2.934;2022-12-17T13:23:11;51.70;;;35.70;;
18732;SDS011;9495;51.210;2.934;2022-12-17T13:25:42;48.73;;;35.17;;
18732;SDS011;9495;51.210;2.934;2022-12-17T13:28:24;51.40;;;38.27;;
18732;SDS011;9495;51.210;2.934;2022-12-17T13:31:00;53.90;;;38.17;;
18732;SDS011;9495;51.210;2.934;2022-12-17T13:33:30;74.83;;;38.03;;
18732;SDS011;9495;51.210;2.934;2022-12-17T13:36:07;59.97;;;39.53;;
18732;SDS011;9495;51.210;2.934;2022-12-17T13:38:47;56.73;;;38.30;;
18732;SDS011;9495;51.210;2.934;2022-12-17T13:41:25;147.10;;;42.03;;
18732;SDS011;9495;51.210;2.934;2022-12-17T13:43:56;83.23;;;43.20;;
18732;SDS011;9495;51.210;2.934;2022-12-17T13:46:28;60.37;;;39.37;;
18732;SDS011;9495;51.210;2.934;2022-12-17T13:49:15;59.20;;;38.20;;
18732;SDS011;9495;51.210;2.934;2022-12-17T13:51:45;65.33;;;39.30;;
18732;SDS011;9495;51.210;2.934;2022-12-17T13:54:16;56.80;;;39.57;;
18732;SDS011;9495;51.210;2.934;2022-12-17T13:56:45;54.93;;;37.73;;
18732;SDS011;9495;51.210;2.934;2022-12-17T13:59:16;55.67;;;38.57;;
18732;SDS011;9495;51.210;2.934;2022-12-17T14:01:46;53.13;;;37.63;;
18732;SDS011;9495;51.210;2.934;2022-12-17T14:04:18;53.40;;;37.50;;
18732;SDS011;9495;51.210;2.934;2022-12-17T14:06:49;48.93;;;34.77;;
18732;SDS011;9495;51.210;2.934;2022-12-17T14:09:20;51.73;;;38.03;;
18732;SDS011;9495;51.210;2.934;2022-12-17T14:11:50;52.67;;;38.93;;
18732;SDS011;9495;51.210;2.934;2022-12-17T14:14:36;59.43;;;42.27;;
18732;SDS011;9495;51.210;2.934;2022-12-17T14:17:13;59.40;;;40.90;;
18732;SDS011;9495;51.210;2.934;2022-12-17T14:19:44;56.67;;;41.10;;
18732;SDS011;9495;51.210;2.934;2022-12-17T14:22:15;58.83;;;42.10;;
18732;SDS011;9495;51.210;2.934;2022-12-17T14:24:48;58.27;;;42.87;;
18732;SDS011;9495;51.210;2.934;2022-12-17T14:27:20;62.03;;;43.10;;
18732;SDS011;9495;51.210;2.934;2022-12-17T14:29:51;65.17;;;43.37;;
18732;SDS011;9495;51.210;2.934;2022-12-17T14:32:23;62.43;;;44.60;;
18732;SDS011;9495;51.210;2.934;2022-12-17T14:34:53;59.73;;;44.37;;
18732;SDS011;9495;51.210;2.934;2022-12-17T14:37:26;63.80;;;45.10;;
18732;SDS011;9495;51.210;2.934;2022-12-17T14:39:59;63.77;;;46.30;;
18732;SDS011;9495;51.210;2.934;2022-12-17T14:42:29;62.93;;;42.53;;
18732;SDS011;9495;51.210;2.934;2022-12-17T14:45:03;62.53;;;42.90;;
18732;SDS011;9495;51.210;2.934;2022-12-17T14:47:34;61.00;;;44.37;;
18732;SDS011;9495;51.210;2.934;2022-12-17T14:50:04;69.23;;;45.13;;
18732;SDS011;9495;51.210;2.934;2022-12-17T14:52:39;64.40;;;46.37;;
18732;SDS011;9495;51.210;2.934;2022-12-17T14:55:27;66.93;;;45.80;;
18732;SDS011;9495;51.210;2.934;2022-12-17T15:00:51;63.97;;;45.57;;
18732;SDS011;9495;51.210;2.934;2022-12-17T15:03:21;72.13;;;49.57;;
18732;SDS011;9495;51.210;2.934;2022-12-17T15:05:54;70.13;;;47.17;;
18732;SDS011;9495;51.210;2.934;2022-12-17T15:08:25;69.13;;;46.73;;
18732;SDS011;9495;51.210;2.934;2022-12-17T15:10:58;66.83;;;46.27;;
18732;SDS011;9495;51.210;2.934;2022-12-17T15:13:27;73.47;;;48.00;;
18732;SDS011;9495;51.210;2.934;2022-12-17T15:15:56;67.97;;;45.30;;
18732;SDS011;9495;51.210;2.934;2022-12-17T15:18:24;70.90;;;46.20;;
18732;SDS011;9495;51.210;2.934;2022-12-17T15:20:53;69.27;;;44.80;;
18732;SDS011;9495;51.210;2.934;2022-12-17T15:23:21;71.50;;;44.33;;
18732;SDS011;9495;51.210;2.934;2022-12-17T15:25:51;65.73;;;43.50;;
18732;SDS011;9495;51.210;2.934;2022-12-17T15:28:22;69.13;;;44.97;;
18732;SDS011;9495;51.210;2.934;2022-12-17T15:30:51;72.03;;;44.27;;
18732;SDS011;9495;51.210;2.934;2022-12-17T15:33:19;70.57;;;46.63;;
18732;SDS011;9495;51.210;2.934;2022-12-17T15:35:48;70.53;;;44.37;;
18732;SDS011;9495;51.210;2.934;2022-12-17T15:38:16;68.43;;;43.13;;
18732;SDS011;9495;51.210;2.934;2022-12-17T15:40:44;74.07;;;44.93;;
18732;SDS011;9495;51.210;2.934;2022-12-17T15:43:13;77.37;;;45.50;;
18732;SDS011;9495;51.210;2.934;2022-12-17T15:45:43;71.63;;;43.30;;
18732;SDS011;9495;51.210;2.934;2022-12-17T15:48:12;75.40;;;46.40;;
18732;SDS011;9495;51.210;2.934;2022-12-17T15:50:42;77.63;;;47.27;;
18732;SDS011;9495;51.210;2.934;2022-12-17T15:53:11;78.33;;;46.77;;
18732;SDS011;9495;51.210;2.934;2022-12-17T15:55:39;79.50;;;44.60;;
18732;SDS011;9495;51.210;2.934;2022-12-17T15:58:08;76.23;;;43.57;;
18732;SDS011;9495;51.210;2.934;2022-12-17T16:00:37;78.60;;;46.13;;
18732;SDS011;9495;51.210;2.934;2022-12-17T16:03:07;76.83;;;44.73;;
18732;SDS011;9495;51.210;2.934;2022-12-17T16:05:35;83.17;;;47.13;;
18732;SDS011;9495;51.210;2.934;2022-12-17T16:08:04;85.10;;;47.60;;
18732;SDS011;9495;51.210;2.934;2022-12-17T16:10:33;82.00;;;45.93;;
18732;SDS011;9495;51.210;2.934;2022-12-17T16:13:01;86.97;;;49.60;;
18732;SDS011;9495;51.210;2.934;2022-12-17T16:15:30;83.17;;;46.43;;
18732;SDS011;9495;51.210;2.934;2022-12-17T16:17:58;84.17;;;48.23;;
18732;SDS011;9495;51.210;2.934;2022-12-17T16:20:28;83.47;;;47.37;;
18732;SDS011;9495;51.210;2.934;2022-12-17T16:22:56;88.33;;;48.63;;
18732;SDS011;9495;51.210;2.934;2022-12-17T16:25:26;85.97;;;47.33;;
18732;SDS011;9495;51.210;2.934;2022-12-17T16:27:55;86.83;;;50.03;;